sensor_id;sensor_type;location;lat;lon;timestamp;pressure;altitude;pressure_sealevel;temperature;humidity
9289;BME280;4683;50.864;12.086;2023-11-21T00:01:02;98432.75;;;9.54;100.00
9289;BME280;4683;50.864;12.086;2023-11-21T00:03:32;98419.94;;;9.51;100.00
9289;BME280;4683;50.864;12.086;2023-11-21T00:06:02;98423.75;;;9.70;100.00
9289;BME280;4683;50.864;12.086;2023-11-21T00:08:32;98423.31;;;9.94;100.00
9289;BME280;4683;50.864;12.086;2023-11-21T00:11:01;98431.13;;;10.09;100.00
9289;BME280;4683;50.864;12.086;2023-11-21T00:13:31;98432.78;;;10.16;100.00
9289;BME280;4683;50.864;12.086;2023-11-21T00:16:03;98443.19;;;10.25;100.00
9289;BME280;4683;50.864;12.086;2023-11-21T00:18:33;98439.38;;;10.27;100.00
9289;BME280;4683;50.864;12.086;2023-11-21T00:21:02;98438.97;;;10.30;100.00
9289;BME280;4683;50.864;12.086;2023-11-21T00:23:33;98435.97;;;10.33;100.00
9289;BME280;4683;50.864;12.086;2023-11-21T00:26:03;98438.28;;;10.22;100.00
9289;BME280;4683;50.864;12.086;2023-11-21T00:28:32;98437.88;;;9.90;100.00
9289;BME280;4683;50.864;12.086;2023-11-21T00:31:01;98442.22;;;9.76;100.00
9289;BME280;4683;50.864;12.086;2023-11-21T00:33:30;98441.50;;;9.61;100.00
9289;BME280;4683;50.864;12.086;2023-11-21T00:35:59;98431.38;;;9.86;100.00
9289;BME280;4683;50.864;12.086;2023-11-21T00:38:29;98437.56;;;10.00;100.00
9289;BME280;4683;50.864;12.086;2023-11-21T00:40:59;98440.59;;;10.03;100.00
9289;BME280;4683;50.864;12.086;2023-11-21T00:43:29;98449.13;;;10.05;100.00
9289;BME280;4683;50.864;12.086;2023-11-21T00:45:57;98445.69;;;10.05;100.00
9289;BME280;4683;50.864;12.086;2023-11-21T00:48:26;98455.59;;;10.03;100.00
9289;BME280;4683;50.864;12.086;2023-11-21T00:50:57;98451.72;;;9.99;100.00
9289;BME280;4683;50.864;12.086;2023-11-21T00:53:25;98460.00;;;9.96;100.00
9289;BME280;4683;50.864;12.086;2023-11-21T00:55:54;98457.38;;;9.96;100.00
9289;BME280;4683;50.864;12.086;2023-11-21T00:58:26;98448.47;;;9.97;100.00
9289;BME280;4683;50.864;12.086;2023-11-21T01:00:55;98452.97;;;10.03;100.00
9289;BME280;4683;50.864;12.086;2023-11-21T01:03:25;98456.09;;;10.13;100.00
9289;BME280;4683;50.864;12.086;2023-11-21T01:05:53;98466.88;;;10.18;100.00
9289;BME280;4683;50.864;12.086;2023-11-21T01:08:22;98460.00;;;10.24;100.00
9289;BME280;4683;50.864;12.086;2023-11-21T01:10:53;98458.81;;;10.26;100.00
9289;BME280;4683;50.864;12.086;2023-11-21T01:13:23;98467.34;;;10.28;100.00
9289;BME280;4683;50.864;12.086;2023-11-21T01:15:59;98473.00;;;10.25;100.00
9289;BME280;4683;50.864;12.086;2023-11-21T01:18:28;98472.75;;;9.92;100.00
9289;BME280;4683;50.864;12.086;2023-11-21T01:20:56;98468.38;;;9.78;100.00
9289;BME280;4683;50.864;12.086;2023-11-21T01:23:26;98466.66;;;9.63;100.00
9289;BME280;4683;50.864;12.086;2023-11-21T01:25:56;98459.81;;;9.48;100.00
9289;BME280;4683;50.864;12.086;2023-11-21T01:28:25;98458.53;;;9.44;100.00
9289;BME280;4683;50.864;12.086;2023-11-21T01:30:54;98460.16;;;9.45;100.00
9289;BME280;4683;50.864;12.086;2023-11-21T01:33:25;98452.41;;;9.36;100.00
9289;BME280;4683;50.864;12.086;2023-11-21T01:35:54;98449.41;;;9.39;100.00
9289;BME280;4683;50.864;12.086;2023-11-21T01:38:25;98449.06;;;9.49;100.00
9289;BME280;4683;50.864;12.086;2023-11-21T01:40:53;98454.97;;;9.51;100.00
9289;BME280;4683;50.864;12.086;2023-11-21T01:43:21;98457.84;;;9.56;100.00
9289;BME280;4683;50.864;12.086;2023-11-21T01:45:50;98465.16;;;9.54;100.00
9289;BME280;4683;50.864;12.086;2023-11-21T01:48:18;98459.25;;;9.52;100.00
9289;BME280;4683;50.864;12.086;2023-11-21T01:50:50;98468.75;;;9.53;100.00
9289;BME280;4683;50.864;12.086;2023-11-21T01:53:19;98467.34;;;9.51;100.00
9289;BME280;4683;50.864;12.086;2023-11-21T01:55:52;98468.72;;;9.47;100.00
9289;BME280;4683;50.864;12.086;2023-11-21T01:58:23;98467.50;;;9.49;100.00
9289;BME280;4683;50.864;12.086;2023-11-21T02:00:51;98473.16;;;9.46;100.00
9289;BME280;4683;50.864;12.086;2023-11-21T02:03:22;98470.28;;;9.41;100.00
9289;BME280;4683;50.864;12.086;2023-11-21T02:05:54;98474.34;;;9.44;100.00
9289;BME280;4683;50.864;12.086;2023-11-21T02:08:22;98469.06;;;9.44;100.00
9289;BME280;4683;50.864;12.086;2023-11-21T02:10:52;98472.84;;;9.56;100.00
9289;BME280;4683;50.864;12.086;2023-11-21T02:13:21;98482.00;;;9.60;100.00
9289;BME280;4683;50.864;12.086;2023-11-21T02:15:50;98483.50;;;9.69;100.00
9289;BME280;4683;50.864;12.086;2023-11-21T02:18:22;98486.50;;;9.66;100.00
9289;BME280;4683;50.864;12.086;2023-11-21T02:20:53;98482.03;;;9.66;100.00
9289;BME280;4683;50.864;12.086;2023-11-21T02:23:23;98480.00;;;9.90;100.00
9289;BME280;4683;50.864;12.086;2023-11-21T02:25:57;98476.06;;;10.01;100.00
9289;BME280;4683;50.864;12.086;2023-11-21T02:28:27;98471.25;;;10.11;100.00
9289;BME280;4683;50.864;12.086;2023-11-21T02:30:58;98474.56;;;10.20;100.00
9289;BME280;4683;50.864;12.086;2023-11-21T02:33:27;98479.09;;;10.26;100.00
9289;BME280;4683;50.864;12.086;2023-11-21T02:35:57;98484.19;;;10.27;100.00
9289;BME280;4683;50.864;12.086;2023-11-21T02:38:34;98480.75;;;10.27;100.00
9289;BME280;4683;50.864;12.086;2023-11-21T02:41:03;98485.56;;;10.23;100.00
9289;BME280;4683;50.864;12.086;2023-11-21T02:43:32;98495.66;;;10.20;100.00
9289;BME280;4683;50.864;12.086;2023-11-21T02:46:01;98496.44;;;10.13;100.00
9289;BME280;4683;50.864;12.086;2023-11-21T02:48:30;98489.91;;;10.09;100.00
9289;BME280;4683;50.864;12.086;2023-11-21T02:51:00;98498.38;;;10.05;100.00
9289;BME280;4683;50.864;12.086;2023-11-21T02:53:34;98490.50;;;10.05;100.00
9289;BME280;4683;50.864;12.086;2023-11-21T02:56:02;98494.38;;;10.09;100.00
9289;BME280;4683;50.864;12.086;2023-11-21T02:58:31;98486.69;;;10.14;100.00
9289;BME280;4683;50.864;12.086;2023-11-21T03:01:00;98492.41;;;10.18;100.00
9289;BME280;4683;50.864;12.086;2023-11-21T03:03:31;98486.47;;;10.09;100.00
9289;BME280;4683;50.864;12.086;2023-11-21T03:06:00;98488.75;;;9.90;100.00
9289;BME280;4683;50.864;12.086;2023-11-21T03:08:31;98490.03;;;9.73;100.00
9289;BME280;4683;50.864;12.086;2023-11-21T03:10:59;98484.75;;;9.73;100.00
9289;BME280;4683;50.864;12.086;2023-11-21T03:13:30;98487.25;;;9.81;100.00
9289;BME280;4683;50.864;12.086;2023-11-21T03:16:03;98486.59;;;10.01;100.00
9289;BME280;4683;50.864;12.086;2023-11-21T03:18:33;98487.84;;;10.05;100.00
9289;BME280;4683;50.864;12.086;2023-11-21T03:21:03;98489.94;;;10.16;100.00
9289;BME280;4683;50.864;12.086;2023-11-21T03:23:37;98487.19;;;10.24;100.00
9289;BME280;4683;50.864;12.086;2023-11-21T03:26:12;98488.44;;;10.28;100.00
9289;BME280;4683;50.864;12.086;2023-11-21T03:28:42;98493.13;;;10.33;100.00
9289;BME280;4683;50.864;12.086;2023-11-21T03:31:14;98497.84;;;10.37;100.00
9289;BME280;4683;50.864;12.086;2023-11-21T03:33:44;98501.50;;;10.36;100.00
9289;BME280;4683;50.864;12.086;2023-11-21T03:36:17;98504.28;;;10.35;100.00
9289;BME280;4683;50.864;12.086;2023-11-21T03:38:48;98515.56;;;10.22;100.00
9289;BME280;4683;50.864;12.086;2023-11-21T03:41:17;98511.22;;;10.14;100.00
9289;BME280;4683;50.864;12.086;2023-11-21T03:43:52;98499.19;;;10.05;100.00
9289;BME280;4683;50.864;12.086;2023-11-21T03:46:21;98505.19;;;9.93;100.00
9289;BME280;4683;50.864;12.086;2023-11-21T03:48:50;98508.75;;;9.85;100.00
9289;BME280;4683;50.864;12.086;2023-11-21T03:51:19;98506.78;;;9.94;100.00
9289;BME280;4683;50.864;12.086;2023-11-21T03:53:49;98506.69;;;9.80;100.00
9289;BME280;4683;50.864;12.086;2023-11-21T03:56:19;98510.31;;;9.58;100.00
9289;BME280;4683;50.864;12.086;2023-11-21T03:58:48;98506.56;;;9.46;100.00
9289;BME280;4683;50.864;12.086;2023-11-21T04:01:21;98496.78;;;9.39;100.00
9289;BME280;4683;50.864;12.086;2023-11-21T04:03:50;98499.03;;;9.43;100.00
9289;BME280;4683;50.864;12.086;2023-11-21T04:06:19;98493.00;;;9.49;100.00
9289;BME280;4683;50.864;12.086;2023-11-21T04:08:49;98500.44;;;9.60;100.00
9289;BME280;4683;50.864;12.086;2023-11-21T04:15:27;98507.56;;;9.23;100.00
9289;BME280;4683;50.864;12.086;2023-11-21T04:17:56;98510.75;;;9.19;100.00
9289;BME280;4683;50.864;12.086;2023-11-21T04:20:26;98505.22;;;9.13;100.00
9289;BME280;4683;50.864;12.086;2023-11-21T04:22:56;98504.56;;;9.11;100.00
9289;BME280;4683;50.864;12.086;2023-11-21T04:25:25;98499.25;;;9.26;100.00
9289;BME280;4683;50.864;12.086;2023-11-21T04:27:55;98505.44;;;9.55;100.00
9289;BME280;4683;50.864;12.086;2023-11-21T04:30:24;98508.06;;;9.76;100.00
9289;BME280;4683;50.864;12.086;2023-11-21T04:32:52;98517.47;;;9.85;100.00
9289;BME280;4683;50.864;12.086;2023-11-21T04:35:23;98529.91;;;9.91;100.00
9289;BME280;4683;50.864;12.086;2023-11-21T04:37:52;98526.88;;;9.95;100.00
9289;BME280;4683;50.864;12.086;2023-11-21T04:40:22;98532.34;;;9.93;100.00
9289;BME280;4683;50.864;12.086;2023-11-21T04:43:00;98535.53;;;9.88;100.00
9289;BME280;4683;50.864;12.086;2023-11-21T04:45:29;98544.81;;;9.84;100.00
9289;BME280;4683;50.864;12.086;2023-11-21T04:47:57;98544.19;;;9.82;100.00
9289;BME280;4683;50.864;12.086;2023-11-21T04:50:26;98539.94;;;9.81;100.00
9289;BME280;4683;50.864;12.086;2023-11-21T04:52:57;98543.19;;;9.83;100.00
9289;BME280;4683;50.864;12.086;2023-11-21T04:55:26;98548.09;;;9.86;100.00
9289;BME280;4683;50.864;12.086;2023-11-21T04:58:00;98542.81;;;9.86;100.00
9289;BME280;4683;50.864;12.086;2023-11-21T05:00:28;98546.88;;;9.89;100.00
9289;BME280;4683;50.864;12.086;2023-11-21T05:02:57;98561.06;;;9.88;100.00
9289;BME280;4683;50.864;12.086;2023-11-21T05:05:25;98569.16;;;9.86;100.00
9289;BME280;4683;50.864;12.086;2023-11-21T05:07:54;98570.66;;;9.74;100.00
9289;BME280;4683;50.864;12.086;2023-11-21T05:10:23;98565.00;;;9.56;100.00
9289;BME280;4683;50.864;12.086;2023-11-21T05:12:51;98562.22;;;9.43;100.00
9289;BME280;4683;50.864;12.086;2023-11-21T05:15:21;98563.69;;;9.30;100.00
9289;BME280;4683;50.864;12.086;2023-11-21T05:17:50;98570.25;;;9.20;100.00
9289;BME280;4683;50.864;12.086;2023-11-21T05:20:20;98566.34;;;9.15;100.00
9289;BME280;4683;50.864;12.086;2023-11-21T05:22:50;98563.06;;;9.28;100.00
9289;BME280;4683;50.864;12.086;2023-11-21T05:25:20;98568.94;;;9.30;100.00
9289;BME280;4683;50.864;12.086;2023-11-21T05:27:49;98570.06;;;9.21;100.00
9289;BME280;4683;50.864;12.086;2023-11-21T05:30:20;98581.69;;;9.12;100.00
9289;BME280;4683;50.864;12.086;2023-11-21T05:32:49;98584.78;;;9.01;100.00
9289;BME280;4683;50.864;12.086;2023-11-21T05:35:18;98582.88;;;8.95;100.00
9289;BME280;4683;50.864;12.086;2023-11-21T05:37:47;98584.25;;;8.91;100.00
9289;BME280;4683;50.864;12.086;2023-11-21T05:40:20;98582.16;;;8.86;100.00
9289;BME280;4683;50.864;12.086;2023-11-21T05:42:52;98578.53;;;8.87;100.00
9289;BME280;4683;50.864;12.086;2023-11-21T05:45:21;98583.97;;;8.85;100.00
9289;BME280;4683;50.864;12.086;2023-11-21T05:47:50;98587.97;;;8.81;100.00
9289;BME280;4683;50.864;12.086;2023-11-21T05:50:19;98590.13;;;8.78;100.00
9289;BME280;4683;50.864;12.086;2023-11-21T05:52:49;98596.56;;;8.75;100.00
9289;BME280;4683;50.864;12.086;2023-11-21T05:55:18;98596.28;;;8.70;100.00
9289;BME280;4683;50.864;12.086;2023-11-21T05:57:57;98593.03;;;8.68;100.00
9289;BME280;4683;50.864;12.086;2023-11-21T06:00:32;98596.38;;;8.62;100.00
9289;BME280;4683;50.864;12.086;2023-11-21T06:03:02;98595.41;;;8.63;100.00
9289;BME280;4683;50.864;12.086;2023-11-21T06:05:34;98585.31;;;8.52;100.00
9289;BME280;4683;50.864;12.086;2023-11-21T06:08:05;98581.13;;;8.43;100.00
9289;BME280;4683;50.864;12.086;2023-11-21T06:10:35;98583.13;;;8.41;100.00
9289;BME280;4683;50.864;12.086;2023-11-21T06:13:07;98603.53;;;8.30;100.00
9289;BME280;4683;50.864;12.086;2023-11-21T06:15:41;98605.66;;;8.12;100.00
9289;BME280;4683;50.864;12.086;2023-11-21T06:18:12;98611.03;;;7.96;100.00
9289;BME280;4683;50.864;12.086;2023-11-21T06:20:45;98616.03;;;7.82;100.00
9289;BME280;4683;50.864;12.086;2023-11-21T06:23:16;98612.50;;;7.67;100.00
9289;BME280;4683;50.864;12.086;2023-11-21T06:25:45;98621.09;;;7.61;100.00
9289;BME280;4683;50.864;12.086;2023-11-21T06:28:15;98631.28;;;7.56;100.00
9289;BME280;4683;50.864;12.086;2023-11-21T06:30:46;98624.75;;;7.52;100.00
9289;BME280;4683;50.864;12.086;2023-11-21T06:33:16;98633.94;;;7.48;100.00
9289;BME280;4683;50.864;12.086;2023-11-21T06:35:49;98636.91;;;7.45;100.00
9289;BME280;4683;50.864;12.086;2023-11-21T06:38:22;98642.50;;;7.42;100.00
9289;BME280;4683;50.864;12.086;2023-11-21T06:40:51;98645.47;;;7.38;100.00
9289;BME280;4683;50.864;12.086;2023-11-21T06:43:20;98645.16;;;7.33;100.00
9289;BME280;4683;50.864;12.086;2023-11-21T06:45:52;98645.19;;;7.25;100.00
9289;BME280;4683;50.864;12.086;2023-11-21T06:48:21;98654.38;;;7.21;100.00
9289;BME280;4683;50.864;12.086;2023-11-21T06:50:50;98648.69;;;7.18;100.00
9289;BME280;4683;50.864;12.086;2023-11-21T06:53:19;98655.69;;;7.17;100.00
9289;BME280;4683;50.864;12.086;2023-11-21T06:55:48;98654.56;;;7.20;100.00
9289;BME280;4683;50.864;12.086;2023-11-21T06:58:19;98654.06;;;7.24;100.00
9289;BME280;4683;50.864;12.086;2023-11-21T07:00:59;98654.53;;;7.28;100.00
9289;BME280;4683;50.864;12.086;2023-11-21T07:03:28;98663.84;;;7.38;100.00
9289;BME280;4683;50.864;12.086;2023-11-21T07:06:01;98668.06;;;7.48;100.00
9289;BME280;4683;50.864;12.086;2023-11-21T07:08:39;98672.09;;;7.58;100.00
9289;BME280;4683;50.864;12.086;2023-11-21T07:11:17;98676.81;;;7.71;100.00
9289;BME280;4683;50.864;12.086;2023-11-21T07:14:05;98688.75;;;7.82;100.00
9289;BME280;4683;50.864;12.086;2023-11-21T07:17:05;98695.22;;;7.94;100.00
9289;BME280;4683;50.864;12.086;2023-11-21T07:20:20;98691.75;;;8.02;100.00
9289;BME280;4683;50.864;12.086;2023-11-21T07:22:56;98695.66;;;8.06;100.00
9289;BME280;4683;50.864;12.086;2023-11-21T07:25:29;98696.38;;;8.00;100.00
9289;BME280;4683;50.864;12.086;2023-11-21T07:28:13;98689.97;;;7.94;100.00
9289;BME280;4683;50.864;12.086;2023-11-21T07:30:56;98692.44;;;7.96;100.00
9289;BME280;4683;50.864;12.086;2023-11-21T07:33:39;98683.16;;;8.08;100.00
9289;BME280;4683;50.864;12.086;2023-11-21T07:36:24;98688.59;;;8.29;100.00
9289;BME280;4683;50.864;12.086;2023-11-21T07:39:03;98688.00;;;8.50;100.00
9289;BME280;4683;50.864;12.086;2023-11-21T07:41:37;98695.94;;;8.65;100.00
9289;BME280;4683;50.864;12.086;2023-11-21T07:44:15;98699.66;;;8.71;100.00
9289;BME280;4683;50.864;12.086;2023-11-21T07:47:08;98709.81;;;8.74;100.00
9289;BME280;4683;50.864;12.086;2023-11-21T07:49:51;98702.41;;;8.77;100.00
9289;BME280;4683;50.864;12.086;2023-11-21T07:52:40;98713.22;;;8.82;100.00
9289;BME280;4683;50.864;12.086;2023-11-21T07:59:13;98722.84;;;8.67;100.00
9289;BME280;4683;50.864;12.086;2023-11-21T08:02:11;98731.25;;;8.62;100.00
9289;BME280;4683;50.864;12.086;2023-11-21T08:04:55;98729.34;;;8.56;100.00
9289;BME280;4683;50.864;12.086;2023-11-21T08:07:34;98728.28;;;8.43;100.00
9289;BME280;4683;50.864;12.086;2023-11-21T08:10:13;98725.38;;;8.37;100.00
9289;BME280;4683;50.864;12.086;2023-11-21T08:12:47;98723.47;;;8.23;100.00
9289;BME280;4683;50.864;12.086;2023-11-21T08:15:30;98719.25;;;8.14;100.00
9289;BME280;4683;50.864;12.086;2023-11-21T08:18:27;98714.22;;;8.04;100.00
9289;BME280;4683;50.864;12.086;2023-11-21T08:21:42;98703.25;;;8.01;100.00
9289;BME280;4683;50.864;12.086;2023-11-21T08:24:41;98712.06;;;8.08;100.00
9289;BME280;4683;50.864;12.086;2023-11-21T08:27:29;98703.13;;;8.17;100.00
9289;BME280;4683;50.864;12.086;2023-11-21T08:30:09;98711.16;;;8.24;100.00
9289;BME280;4683;50.864;12.086;2023-11-21T08:32:41;98703.03;;;8.33;100.00
9289;BME280;4683;50.864;12.086;2023-11-21T08:35:12;98712.06;;;8.39;100.00
9289;BME280;4683;50.864;12.086;2023-11-21T08:37:44;98723.31;;;8.48;100.00
9289;BME280;4683;50.864;12.086;2023-11-21T08:40:13;98727.16;;;8.45;100.00
9289;BME280;4683;50.864;12.086;2023-11-21T08:42:44;98733.66;;;8.49;100.00
9289;BME280;4683;50.864;12.086;2023-11-21T08:45:16;98733.78;;;8.56;100.00
9289;BME280;4683;50.864;12.086;2023-11-21T08:47:46;98736.53;;;8.62;100.00
9289;BME280;4683;50.864;12.086;2023-11-21T08:50:15;98732.44;;;8.60;100.00
9289;BME280;4683;50.864;12.086;2023-11-21T08:52:48;98729.06;;;8.51;100.00
9289;BME280;4683;50.864;12.086;2023-11-21T08:55:16;98727.25;;;8.52;100.00
9289;BME280;4683;50.864;12.086;2023-11-21T08:57:46;98724.91;;;8.57;100.00
9289;BME280;4683;50.864;12.086;2023-11-21T09:00:17;98724.75;;;8.58;100.00
9289;BME280;4683;50.864;12.086;2023-11-21T09:02:46;98725.91;;;8.56;100.00
9289;BME280;4683;50.864;12.086;2023-11-21T09:05:17;98732.44;;;8.60;100.00
9289;BME280;4683;50.864;12.086;2023-11-21T09:07:49;98730.34;;;8.55;100.00
9289;BME280;4683;50.864;12.086;2023-11-21T09:10:21;98729.63;;;8.61;100.00
9289;BME280;4683;50.864;12.086;2023-11-21T09:12:51;98733.06;;;8.62;100.00
9289;BME280;4683;50.864;12.086;2023-11-21T09:15:21;98731.16;;;8.56;100.00
9289;BME280;4683;50.864;12.086;2023-11-21T09:17:52;98731.16;;;8.56;100.00
9289;BME280;4683;50.864;12.086;2023-11-21T09:20:21;98738.88;;;8.57;100.00
9289;BME280;4683;50.864;12.086;2023-11-21T09:22:52;98731.91;;;8.64;100.00
9289;BME280;4683;50.864;12.086;2023-11-21T09:25:32;98724.66;;;8.67;100.00
9289;BME280;4683;50.864;12.086;2023-11-21T09:28:02;98738.00;;;8.65;100.00
9289;BME280;4683;50.864;12.086;2023-11-21T09:30:35;98730.50;;;8.77;100.00
9289;BME280;4683;50.864;12.086;2023-11-21T09:33:04;98738.16;;;8.86;100.00
9289;BME280;4683;50.864;12.086;2023-11-21T09:35:38;98745.09;;;8.79;100.00
9289;BME280;4683;50.864;12.086;2023-11-21T09:38:09;98748.31;;;8.89;100.00
9289;BME280;4683;50.864;12.086;2023-11-21T09:40:38;98753.84;;;8.95;100.00
9289;BME280;4683;50.864;12.086;2023-11-21T09:43:17;98752.88;;;8.96;100.00
9289;BME280;4683;50.864;12.086;2023-11-21T09:46:00;98756.94;;;8.98;100.00
9289;BME280;4683;50.864;12.086;2023-11-21T09:48:34;98763.44;;;9.25;100.00
9289;BME280;4683;50.864;12.086;2023-11-21T09:51:05;98766.28;;;9.38;100.00
9289;BME280;4683;50.864;12.086;2023-11-21T09:53:37;98770.00;;;9.44;100.00
9289;BME280;4683;50.864;12.086;2023-11-21T09:56:10;98777.81;;;9.37;100.00
9289;BME280;4683;50.864;12.086;2023-11-21T09:58:40;98772.63;;;9.29;100.00
9289;BME280;4683;50.864;12.086;2023-11-21T10:01:13;98778.22;;;9.26;100.00
9289;BME280;4683;50.864;12.086;2023-11-21T10:07:51;98782.00;;;9.47;100.00
9289;BME280;4683;50.864;12.086;2023-11-21T10:10:24;98784.28;;;9.50;100.00
9289;BME280;4683;50.864;12.086;2023-11-21T10:12:57;98781.59;;;9.35;100.00
9289;BME280;4683;50.864;12.086;2023-11-21T10:15:31;98783.25;;;9.36;100.00
9289;BME280;4683;50.864;12.086;2023-11-21T10:18:06;98777.69;;;9.31;100.00
9289;BME280;4683;50.864;12.086;2023-11-21T10:20:39;98777.63;;;9.39;100.00
9289;BME280;4683;50.864;12.086;2023-11-21T10:23:08;98777.72;;;9.46;100.00
9289;BME280;4683;50.864;12.086;2023-11-21T10:25:41;98777.34;;;9.49;100.00
9289;BME280;4683;50.864;12.086;2023-11-21T10:28:10;98783.34;;;9.57;100.00
9289;BME280;4683;50.864;12.086;2023-11-21T10:30:39;98784.91;;;9.52;100.00
9289;BME280;4683;50.864;12.086;2023-11-21T10:33:09;98798.53;;;9.55;100.00
9289;BME280;4683;50.864;12.086;2023-11-21T10:35:43;98795.16;;;9.47;100.00
9289;BME280;4683;50.864;12.086;2023-11-21T10:38:19;98788.34;;;9.37;100.00
9289;BME280;4683;50.864;12.086;2023-11-21T10:40:53;98788.53;;;9.36;100.00
9289;BME280;4683;50.864;12.086;2023-11-21T10:43:43;98804.41;;;9.43;100.00
9289;BME280;4683;50.864;12.086;2023-11-21T10:46:15;98799.50;;;9.39;100.00
9289;BME280;4683;50.864;12.086;2023-11-21T10:48:44;98805.75;;;9.38;100.00
9289;BME280;4683;50.864;12.086;2023-11-21T10:51:15;98803.13;;;9.38;100.00
9289;BME280;4683;50.864;12.086;2023-11-21T10:53:47;98806.75;;;9.37;100.00
9289;BME280;4683;50.864;12.086;2023-11-21T10:56:23;98809.13;;;9.32;100.00
9289;BME280;4683;50.864;12.086;2023-11-21T10:58:55;98813.03;;;9.36;100.00
9289;BME280;4683;50.864;12.086;2023-11-21T11:01:27;98802.81;;;9.19;100.00
9289;BME280;4683;50.864;12.086;2023-11-21T11:04:01;98798.50;;;9.03;100.00
9289;BME280;4683;50.864;12.086;2023-11-21T11:06:46;98787.41;;;8.93;100.00
9289;BME280;4683;50.864;12.086;2023-11-21T11:09:22;98796.53;;;9.05;100.00
9289;BME280;4683;50.864;12.086;2023-11-21T11:11:55;98798.50;;;9.03;100.00
9289;BME280;4683;50.864;12.086;2023-11-21T11:14:26;98790.88;;;9.08;100.00
9289;BME280;4683;50.864;12.086;2023-11-21T11:17:03;98798.09;;;9.14;100.00
9289;BME280;4683;50.864;12.086;2023-11-21T11:19:33;98799.19;;;9.20;100.00
9289;BME280;4683;50.864;12.086;2023-11-21T11:22:24;98801.72;;;9.13;100.00
9289;BME280;4683;50.864;12.086;2023-11-21T11:25:25;98796.53;;;9.05;100.00
9289;BME280;4683;50.864;12.086;2023-11-21T11:28:08;98800.16;;;9.04;100.00
9289;BME280;4683;50.864;12.086;2023-11-21T11:30:57;98797.69;;;9.02;100.00
9289;BME280;4683;50.864;12.086;2023-11-21T11:33:39;98796.34;;;9.06;100.00
9289;BME280;4683;50.864;12.086;2023-11-21T11:36:28;98805.63;;;9.17;100.00
9289;BME280;4683;50.864;12.086;2023-11-21T11:39:00;98809.63;;;9.13;100.00
9289;BME280;4683;50.864;12.086;2023-11-21T11:41:32;98808.97;;;9.11;100.00
9289;BME280;4683;50.864;12.086;2023-11-21T11:44:03;98822.69;;;9.21;100.00
9289;BME280;4683;50.864;12.086;2023-11-21T11:46:54;98827.94;;;9.21;100.00
9289;BME280;4683;50.864;12.086;2023-11-21T11:49:34;98823.69;;;9.20;100.00
9289;BME280;4683;50.864;12.086;2023-11-21T11:52:34;98825.69;;;9.18;100.00
9289;BME280;4683;50.864;12.086;2023-11-21T11:55:08;98823.63;;;9.28;100.00
9289;BME280;4683;50.864;12.086;2023-11-21T11:57:42;98814.50;;;9.16;100.00
9289;BME280;4683;50.864;12.086;2023-11-21T12:00:19;98823.72;;;8.97;100.00
9289;BME280;4683;50.864;12.086;2023-11-21T12:02:56;98813.31;;;9.04;100.00
9289;BME280;4683;50.864;12.086;2023-11-21T12:05:27;98819.44;;;9.19;100.00
9289;BME280;4683;50.864;12.086;2023-11-21T12:07:57;98823.75;;;9.12;100.00
9289;BME280;4683;50.864;12.086;2023-11-21T12:10:29;98827.03;;;9.14;100.00
9289;BME280;4683;50.864;12.086;2023-11-21T12:13:01;98833.66;;;9.10;100.00
9289;BME280;4683;50.864;12.086;2023-11-21T12:15:35;98835.34;;;9.03;100.00
9289;BME280;4683;50.864;12.086;2023-11-21T12:18:07;98836.16;;;9.03;100.00
9289;BME280;4683;50.864;12.086;2023-11-21T12:20:38;98835.72;;;9.00;100.00
9289;BME280;4683;50.864;12.086;2023-11-21T12:23:12;98839.31;;;8.99;100.00
9289;BME280;4683;50.864;12.086;2023-11-21T12:25:42;98842.94;;;8.98;100.00
9289;BME280;4683;50.864;12.086;2023-11-21T12:28:13;98846.03;;;9.01;100.00
9289;BME280;4683;50.864;12.086;2023-11-21T12:30:45;98847.63;;;8.87;100.00
9289;BME280;4683;50.864;12.086;2023-11-21T12:33:17;98854.25;;;8.75;100.00
9289;BME280;4683;50.864;12.086;2023-11-21T12:35:45;98858.19;;;8.79;100.00
9289;BME280;4683;50.864;12.086;2023-11-21T12:38:24;98861.81;;;8.78;100.00
9289;BME280;4683;50.864;12.086;2023-11-21T12:41:20;98865.00;;;8.66;100.00
9289;BME280;4683;50.864;12.086;2023-11-21T12:43:52;98872.09;;;8.65;100.00
9289;BME280;4683;50.864;12.086;2023-11-21T12:46:26;98877.69;;;8.62;100.00
9289;BME280;4683;50.864;12.086;2023-11-21T12:49:02;98876.00;;;8.69;100.00
9289;BME280;4683;50.864;12.086;2023-11-21T12:51:32;98887.16;;;8.71;100.00
9289;BME280;4683;50.864;12.086;2023-11-21T12:54:03;98882.66;;;8.80;100.00
9289;BME280;4683;50.864;12.086;2023-11-21T12:56:33;98889.50;;;8.66;100.00
9289;BME280;4683;50.864;12.086;2023-11-21T12:59:03;98892.66;;;8.53;100.00
9289;BME280;4683;50.864;12.086;2023-11-21T13:01:35;98894.19;;;8.48;100.00
9289;BME280;4683;50.864;12.086;2023-11-21T13:04:09;98901.28;;;8.31;100.00
9289;BME280;4683;50.864;12.086;2023-11-21T13:06:39;98898.38;;;8.18;100.00
9289;BME280;4683;50.864;12.086;2023-11-21T13:09:09;98901.53;;;8.13;100.00
9289;BME280;4683;50.864;12.086;2023-11-21T13:11:40;98900.22;;;8.09;100.00
9289;BME280;4683;50.864;12.086;2023-11-21T13:14:13;98896.97;;;7.91;100.00
9289;BME280;4683;50.864;12.086;2023-11-21T13:16:47;98894.00;;;7.85;100.00
9289;BME280;4683;50.864;12.086;2023-11-21T13:19:17;98908.50;;;7.81;100.00
9289;BME280;4683;50.864;12.086;2023-11-21T13:21:50;98905.38;;;7.78;100.00
9289;BME280;4683;50.864;12.086;2023-11-21T13:24:19;98902.56;;;7.79;100.00
9289;BME280;4683;50.864;12.086;2023-11-21T13:26:51;98905.50;;;7.76;100.00
9289;BME280;4683;50.864;12.086;2023-11-21T13:29:21;98914.41;;;7.59;100.00
9289;BME280;4683;50.864;12.086;2023-11-21T13:31:57;98907.03;;;7.38;100.00
9289;BME280;4683;50.864;12.086;2023-11-21T13:34:27;98917.69;;;7.28;100.00
9289;BME280;4683;50.864;12.086;2023-11-21T13:36:57;98916.69;;;7.21;100.00
9289;BME280;4683;50.864;12.086;2023-11-21T13:39:31;98910.78;;;7.11;100.00
9289;BME280;4683;50.864;12.086;2023-11-21T13:42:04;98912.09;;;7.15;100.00
9289;BME280;4683;50.864;12.086;2023-11-21T13:44:35;98910.13;;;7.17;100.00
9289;BME280;4683;50.864;12.086;2023-11-21T13:47:09;98914.06;;;7.29;100.00
9289;BME280;4683;50.864;12.086;2023-11-21T13:49:37;98917.69;;;7.28;100.00
9289;BME280;4683;50.864;12.086;2023-11-21T13:52:09;98917.53;;;7.38;100.00